Terminal Aerodrome Forecast
Issued by NWS

Home | Current Version | Previous Version | Text Only | Print | Product List | Glossary On
Versions: 1 2 3 4 5 6 7 8 9 10 11 12 13 14 15
000
FTUS44 KOUN 290520
TAFGAG
TAF
KGAG 290520Z 2906/3006 04015G23KT P6SM BKN040 OVC110
      TEMPO 2906/2908 3SM -TSRA BR OVC015CB
     FM290800 09012KT P6SM OVC025
      TEMPO 2908/2912 3SM -TSRA BR OVC012CB
     FM291200 08012G18KT 5SM -TSRA BR OVC008CB
     FM291900 08011KT P6SM BKN025
     FM292200 34012KT P6SM BKN035=

USA.gov is the U.S. government's official web portal to all federal, state and local government web resources and services.